This is the latest recevied weather packets stored in our database for station/object BAGASKAR. If no packets are shown the sender has not sent any weather packets the latest 10 day(s).
| Time | Temp. | Humidity | Pressure | Rain* | Wind** | Luminosity | Snow |
|---|---|---|---|---|---|---|---|
| 1777573616 | 11.11° C | 77% | 1020.7 hPa | - | - | - | - |
| 1777572415 | 11.11° C | 78% | 1020.6 hPa | - | - | - | - |
| 1777571215 | 10.56° C | 80% | 1020.3 hPa | - | - | - | - |
| 1777570015 | 10.56° C | 81% | 1020.2 hPa | - | - | - | - |
| 1777568815 | 12.22° C | 71% | 1020.2 hPa | - | - | - | - |
| 1777567615 | 12.78° C | 66% | 1020.2 hPa | - | - | - | - |
| 1777566416 | 11.67° C | 73% | 1020.1 hPa | - | - | - | - |
| 1777565215 | 10.56° C | 80% | 1020.1 hPa | - | - | - | - |
| 1777564015 | 8.89° C | 91% | 1020.1 hPa | - | - | - | - |
| 1777562815 | 10.56° C | 81% | 1020.2 hPa | - | - | - | - |
| 1777561615 | 9.44° C | 85% | 1020.3 hPa | - | - | - | - |
| 1777560415 | 10° C | 81% | 1020.3 hPa | - | - | - | - |
| 1777559214 | 10.56° C | 81% | 1020.4 hPa | - | - | - | - |
| 1777558014 | 11.11° C | 80% | 1020.6 hPa | - | - | - | - |
| 1777556815 | 8.89° C | 89% | 1020.6 hPa | - | - | - | - |
| 1777555614 | 10° C | 86% | 1020.7 hPa | - | - | - | - |
| 1777554414 | 9.44° C | 88% | 1021 hPa | - | - | - | - |
| 1777553214 | 8.89° C | 89% | 1021.3 hPa | - | - | - | - |
| 1777552014 | 8.33° C | 97% | 1021.2 hPa | - | - | - | - |
| 1777550814 | 8.89° C | 91% | 1021.2 hPa | - | - | - | - |
| 1777549614 | 8.33° C | 99% | 1021.3 hPa | - | - | - | - |
| 1777548414 | 7.78° C | 99% | 1021.4 hPa | - | - | - | - |
| 1777547214 | 8.89° C | 89% | 1021.5 hPa | - | - | - | - |
| 1777546014 | 9.44° C | 90% | 1021.7 hPa | - | - | - | - |
| 1777544814 | 10° C | 86% | 1021.6 hPa | - | - | - | - |
* Rain since midnight (hover to see other rain measurements)
** Current wind speed in m/s (hover to see current wind gust speed)